createdAt,value
2019-02-17T00:00:19.672Z,10.90
2019-02-17T00:01:19.661Z,11.10
2019-02-17T00:02:19.655Z,11.20
2019-02-17T00:03:19.639Z,11.40
2019-02-17T00:04:19.639Z,14.90
2019-02-17T00:05:19.617Z,13.20
2019-02-17T00:06:19.612Z,12.10
2019-02-17T00:07:19.591Z,12.60
2019-02-17T00:08:19.615Z,11.60
2019-02-17T00:09:19.570Z,11.70
2019-02-17T00:10:19.559Z,13.70
2019-02-17T00:11:19.554Z,11.50
2019-02-17T00:12:19.541Z,15.90
2019-02-17T00:13:19.531Z,14.20
2019-02-17T00:14:19.531Z,12.90
2019-02-17T00:15:19.526Z,14.60
2019-02-17T00:16:19.498Z,12.50
2019-02-17T00:17:19.485Z,12.80
2019-02-17T00:18:19.472Z,13.80
2019-02-17T00:19:19.460Z,15.50
2019-02-17T00:20:19.462Z,14.40
2019-02-17T00:21:19.442Z,12.20
2019-02-17T00:22:19.426Z,12.10
2019-02-17T00:23:19.417Z,11.60
2019-02-17T00:24:19.452Z,11.10
2019-02-17T00:25:20.519Z,11.70
2019-02-17T00:26:19.399Z,11.80
2019-02-17T00:27:19.376Z,11.60
2019-02-17T00:28:19.363Z,12.40
2019-02-17T00:29:19.356Z,11.70
2019-02-17T00:30:19.428Z,11.20
2019-02-17T00:31:19.333Z,12.60
2019-02-17T00:32:19.319Z,10.70
2019-02-17T00:33:19.360Z,10.60
2019-02-17T00:34:19.321Z,12.60
2019-02-17T00:35:19.289Z,12.00
2019-02-17T00:36:19.292Z,10.90
2019-02-17T00:37:19.338Z,10.30
2019-02-17T00:38:19.253Z,10.20
2019-02-17T00:39:19.246Z,11.30
2019-02-17T00:40:19.237Z,10.50
2019-02-17T00:41:19.260Z,9.80
2019-02-17T00:42:19.209Z,9.90
2019-02-17T00:43:19.204Z,11.10
2019-02-17T00:44:19.189Z,11.40
2019-02-17T00:45:19.177Z,14.10
2019-02-17T00:46:19.168Z,9.90
2019-02-17T00:47:19.176Z,10.10
2019-02-17T00:48:19.148Z,10.70
2019-02-17T00:49:19.132Z,10.50
2019-02-17T00:50:19.127Z,10.80
2019-02-17T00:51:19.113Z,12.00
2019-02-17T00:52:19.104Z,10.70
2019-02-17T00:53:19.143Z,9.80
2019-02-17T00:54:19.084Z,11.50
2019-02-17T00:55:19.072Z,11.50
2019-02-17T00:56:19.057Z,10.20
2019-02-17T00:57:19.050Z,9.90
2019-02-17T00:58:19.056Z,10.90
2019-02-17T00:59:19.080Z,11.50
2019-02-17T01:00:19.018Z,12.00
2019-02-17T01:01:19.007Z,10.60
2019-02-17T01:02:19.001Z,11.50
2019-02-17T01:03:18.985Z,12.30
2019-02-17T01:04:18.973Z,10.60
2019-02-17T01:05:18.999Z,11.20
2019-02-17T01:06:18.954Z,9.90
2019-02-17T01:07:18.944Z,11.00
2019-02-17T01:08:18.931Z,12.00
2019-02-17T01:09:18.919Z,9.80
2019-02-17T01:10:18.936Z,11.70
2019-02-17T01:11:18.896Z,10.50
2019-02-17T01:12:18.889Z,12.20
2019-02-17T01:13:18.876Z,17.80
2019-02-17T01:14:18.902Z,13.70
2019-02-17T01:15:18.928Z,12.50
2019-02-17T01:16:18.851Z,15.00
2019-02-17T01:17:18.832Z,13.80
2019-02-17T01:18:18.819Z,12.20
2019-02-17T01:19:18.811Z,13.80
2019-02-17T01:20:18.798Z,14.30
2019-02-17T01:21:18.808Z,12.80
2019-02-17T01:22:18.779Z,13.60
2019-02-17T01:23:18.767Z,14.00
2019-02-17T01:24:18.759Z,13.10
2019-02-17T01:25:18.748Z,10.30
2019-02-17T01:26:18.747Z,12.90
2019-02-17T01:27:18.726Z,11.00
2019-02-17T01:28:18.760Z,10.60
2019-02-17T01:29:20.737Z,10.20
2019-02-17T01:30:18.691Z,10.90
2019-02-17T01:31:18.731Z,10.00
2019-02-17T01:32:18.687Z,10.90
2019-02-17T01:33:18.661Z,11.40
2019-02-17T01:34:18.645Z,9.60
2019-02-17T01:35:18.634Z,11.20
2019-02-17T01:36:18.622Z,12.30
2019-02-17T01:37:18.662Z,11.40
2019-02-17T01:38:18.600Z,9.20
2019-02-17T01:39:18.596Z,11.40
2019-02-17T01:40:18.602Z,10.20
2019-02-17T01:41:18.568Z,10.20
2019-02-17T01:42:18.560Z,10.00
2019-02-17T01:43:18.562Z,10.50
2019-02-17T01:44:18.540Z,10.80
2019-02-17T01:45:18.531Z,9.60
2019-02-17T01:46:18.550Z,11.20
2019-02-17T01:47:18.515Z,12.10
2019-02-17T01:48:18.514Z,10.60
2019-02-17T01:49:18.483Z,10.10
2019-02-17T01:50:18.485Z,9.70
2019-02-17T01:51:18.463Z,9.50
2019-02-17T01:52:18.483Z,10.50
2019-02-17T01:53:18.441Z,11.50
2019-02-17T01:54:18.427Z,10.60
2019-02-17T01:55:18.415Z,9.30
2019-02-17T01:56:18.406Z,11.30
2019-02-17T01:57:18.430Z,9.90
2019-02-17T01:58:18.391Z,10.30
2019-02-17T01:59:18.367Z,11.60
2019-02-17T02:00:18.359Z,10.90
2019-02-17T02:01:18.351Z,10.40
2019-02-17T02:02:18.338Z,12.70
2019-02-17T02:03:18.361Z,11.20
2019-02-17T02:04:18.317Z,11.30
2019-02-17T02:05:18.306Z,10.20
2019-02-17T02:06:18.294Z,10.40
2019-02-17T02:07:18.276Z,10.20
2019-02-17T02:08:18.342Z,10.90
2019-02-17T02:09:18.263Z,10.30
2019-02-17T02:10:18.245Z,9.40
2019-02-17T02:11:18.240Z,9.60
2019-02-17T02:12:18.226Z,12.70
2019-02-17T02:13:18.215Z,9.50
2019-02-17T02:14:18.226Z,9.20
2019-02-17T02:15:18.197Z,11.00
2019-02-17T02:16:18.177Z,9.40
2019-02-17T02:17:18.170Z,9.50
2019-02-17T02:18:18.156Z,10.90
2019-02-17T02:19:18.149Z,9.20
2019-02-17T02:20:18.146Z,9.20
2019-02-17T02:21:18.129Z,9.90
2019-02-17T02:22:18.112Z,12.20
2019-02-17T02:23:18.105Z,10.30
2019-02-17T02:24:18.088Z,9.70
2019-02-17T02:25:18.098Z,9.10
2019-02-17T02:26:18.075Z,9.40
2019-02-17T02:27:18.074Z,9.20
2019-02-17T02:28:18.043Z,10.30
2019-02-17T02:29:18.034Z,11.70
2019-02-17T02:30:18.040Z,10.20
2019-02-17T02:31:18.027Z,9.30
2019-02-17T02:32:18.000Z,9.70
2019-02-17T02:33:17.994Z,9.90
2019-02-17T02:34:17.983Z,9.40
2019-02-17T02:35:17.972Z,9.20
2019-02-17T02:36:17.994Z,10.90
2019-02-17T02:37:17.949Z,10.10
2019-02-17T02:38:17.940Z,10.60
2019-02-17T02:39:17.936Z,10.80
2019-02-17T02:40:17.917Z,9.10
2019-02-17T02:41:17.928Z,10.60
2019-02-17T02:42:17.895Z,9.10
2019-02-17T02:43:17.893Z,10.20
2019-02-17T02:44:17.878Z,10.00
2019-02-17T02:45:17.865Z,10.00
2019-02-17T02:46:17.890Z,11.20
2019-02-17T02:47:17.840Z,10.30
2019-02-17T02:48:17.824Z,9.40
2019-02-17T02:49:17.819Z,9.00
2019-02-17T02:50:17.804Z,9.60
2019-02-17T02:51:17.801Z,11.10
2019-02-17T02:52:17.808Z,9.30
2019-02-17T02:53:17.769Z,10.20
2019-02-17T02:54:17.758Z,10.00
2019-02-17T02:55:17.746Z,10.60
2019-02-17T02:56:17.735Z,8.60
2019-02-17T02:57:17.761Z,9.40
2019-02-17T02:58:17.721Z,10.10
2019-02-17T02:59:17.703Z,10.50
2019-02-17T03:00:17.699Z,10.30
2019-02-17T03:01:17.686Z,10.10
2019-02-17T03:02:17.687Z,7.80
2019-02-17T03:03:17.697Z,9.50
2019-02-17T03:04:17.650Z,8.90
2019-02-17T03:05:17.647Z,9.80
2019-02-17T03:06:17.629Z,9.90
2019-02-17T03:07:17.620Z,9.70
2019-02-17T03:08:17.645Z,9.10
2019-02-17T03:09:17.599Z,10.50
2019-02-17T03:10:17.592Z,11.10
2019-02-17T03:11:17.579Z,10.60
2019-02-17T03:12:17.563Z,9.20
2019-02-17T03:13:17.590Z,14.00
2019-02-17T03:14:17.547Z,9.20
2019-02-17T03:15:17.536Z,10.90
2019-02-17T03:16:17.520Z,11.90
2019-02-17T03:17:17.536Z,9.60
2019-02-17T03:18:17.500Z,10.00
2019-02-17T03:19:17.512Z,10.40
2019-02-17T03:20:17.474Z,11.40
2019-02-17T03:21:17.465Z,10.70
2019-02-17T03:22:17.457Z,10.80
2019-02-17T03:23:17.456Z,9.80
2019-02-17T03:24:17.468Z,9.10
2019-02-17T03:25:17.423Z,9.90
2019-02-17T03:26:17.435Z,12.40
2019-02-17T03:27:17.404Z,12.90
2019-02-17T03:28:17.393Z,8.70
2019-02-17T03:29:17.379Z,10.70
2019-02-17T03:30:17.447Z,8.80
2019-02-17T03:31:17.519Z,8.20
2019-02-17T03:32:17.349Z,10.80
2019-02-17T03:33:17.337Z,10.90
2019-02-17T03:34:17.322Z,9.70
2019-02-17T03:35:17.318Z,10.30
2019-02-17T03:36:17.322Z,8.80
2019-02-17T03:37:17.296Z,9.60
2019-02-17T03:38:17.282Z,10.00
2019-02-17T03:39:17.268Z,9.90
2019-02-17T03:40:17.268Z,9.30
2019-02-17T03:41:17.287Z,9.20
2019-02-17T03:42:17.244Z,10.50
2019-02-17T03:43:17.231Z,9.10
2019-02-17T03:44:17.217Z,8.90
2019-02-17T03:45:17.205Z,9.80
2019-02-17T03:46:17.234Z,8.60
2019-02-17T03:47:17.188Z,10.00
2019-02-17T03:48:17.179Z,9.00
2019-02-17T03:49:17.170Z,9.50
2019-02-17T03:50:17.156Z,9.50
2019-02-17T03:51:17.144Z,9.00
2019-02-17T03:52:17.155Z,10.00
2019-02-17T03:53:17.125Z,9.20
2019-02-17T03:54:17.116Z,9.90
2019-02-17T03:55:17.100Z,9.50
2019-02-17T03:56:17.089Z,13.70
2019-02-17T03:57:17.101Z,9.50
2019-02-17T03:58:17.065Z,8.30
2019-02-17T03:59:17.057Z,9.00
2019-02-17T04:00:17.635Z,13.00
2019-02-17T04:01:17.033Z,9.50
2019-02-17T04:02:17.074Z,9.00
2019-02-17T04:03:17.011Z,12.20
2019-02-17T04:04:17.006Z,9.90
2019-02-17T04:05:16.997Z,10.30
2019-02-17T04:06:16.977Z,11.10
2019-02-17T04:07:16.972Z,10.10
2019-02-17T04:08:16.981Z,10.70
2019-02-17T04:09:16.993Z,9.20
2019-02-17T04:10:16.940Z,8.50
2019-02-17T04:11:16.935Z,8.80
2019-02-17T04:12:16.914Z,9.30
2019-02-17T04:13:16.913Z,8.60
2019-02-17T04:14:16.891Z,8.50
2019-02-17T04:15:16.885Z,8.90
2019-02-17T04:16:16.870Z,9.40
2019-02-17T04:17:16.868Z,9.90
2019-02-17T04:18:16.887Z,9.20
2019-02-17T04:19:16.913Z,7.80
2019-02-17T04:20:16.833Z,9.80
2019-02-17T04:21:16.822Z,11.20
2019-02-17T04:22:16.810Z,8.70
2019-02-17T04:23:16.795Z,8.40
2019-02-17T04:24:16.790Z,10.40
2019-02-17T04:25:16.813Z,9.40
2019-02-17T04:26:16.769Z,10.80
2019-02-17T04:27:16.768Z,10.40
2019-02-17T04:28:16.748Z,9.60
2019-02-17T04:29:16.736Z,10.00
2019-02-17T04:30:28.196Z,10.10
2019-02-17T04:31:17.749Z,12.00
2019-02-17T04:32:16.705Z,8.50
2019-02-17T04:33:16.700Z,9.00
2019-02-17T04:34:16.681Z,8.40
2019-02-17T04:35:16.666Z,10.60
2019-02-17T04:36:16.654Z,10.10
2019-02-17T04:37:16.648Z,10.00
2019-02-17T04:38:16.634Z,8.70
2019-02-17T04:39:16.659Z,10.70
2019-02-17T04:40:16.617Z,10.40
2019-02-17T04:41:16.679Z,9.00
2019-02-17T04:42:16.589Z,8.80
2019-02-17T04:43:16.588Z,9.40
2019-02-17T04:44:16.569Z,10.50
2019-02-17T04:45:16.563Z,9.50
2019-02-17T04:46:16.551Z,10.00
2019-02-17T04:47:16.576Z,9.50
2019-02-17T04:48:16.534Z,9.20
2019-02-17T04:49:16.654Z,10.00
2019-02-17T04:50:16.509Z,11.40
2019-02-17T04:51:16.517Z,8.90
2019-02-17T04:52:16.484Z,10.90
2019-02-17T04:53:16.481Z,9.60
2019-02-17T04:54:16.460Z,11.60
2019-02-17T04:55:16.452Z,11.70
2019-02-17T04:56:16.444Z,10.10
2019-02-17T04:57:16.468Z,9.40
2019-02-17T04:58:16.419Z,9.40
2019-02-17T04:59:16.409Z,8.80
2019-02-17T05:00:16.403Z,9.50
2019-02-17T05:01:16.393Z,10.10
2019-02-17T05:02:16.446Z,10.90
2019-02-17T05:03:16.363Z,9.10
2019-02-17T05:04:16.358Z,9.80
2019-02-17T05:05:16.351Z,10.40
2019-02-17T05:06:16.343Z,9.10
2019-02-17T05:07:16.327Z,10.60
2019-02-17T05:08:16.352Z,9.20
2019-02-17T05:09:16.315Z,9.40
2019-02-17T05:10:16.291Z,10.40
2019-02-17T05:11:16.276Z,10.00
2019-02-17T05:12:16.266Z,9.80
2019-02-17T05:13:16.284Z,9.30
2019-02-17T05:14:16.275Z,11.10
2019-02-17T05:15:16.241Z,10.80
2019-02-17T05:16:16.239Z,9.90
2019-02-17T05:17:16.214Z,10.30
2019-02-17T05:18:16.210Z,9.30
2019-02-17T05:19:16.292Z,10.40
2019-02-17T05:20:16.219Z,9.80
2019-02-17T05:21:16.179Z,9.20
2019-02-17T05:22:16.164Z,11.00
2019-02-17T05:23:16.159Z,11.10
2019-02-17T05:24:16.161Z,10.20
2019-02-17T05:25:16.204Z,10.10
2019-02-17T05:26:16.122Z,9.30
2019-02-17T05:27:16.109Z,10.00
2019-02-17T05:28:16.100Z,8.90
2019-02-17T05:29:16.090Z,10.10
2019-02-17T05:30:16.078Z,10.10
2019-02-17T05:31:16.093Z,8.30
2019-02-17T05:32:16.052Z,11.10
2019-02-17T05:33:16.050Z,9.40
2019-02-17T05:34:16.034Z,11.60
2019-02-17T05:35:16.020Z,9.70
2019-02-17T05:36:16.047Z,9.20
2019-02-17T05:37:16.030Z,9.90
2019-02-17T05:38:15.989Z,9.40
2019-02-17T05:39:15.976Z,10.40
2019-02-17T05:40:15.971Z,12.00
2019-02-17T05:41:15.958Z,9.60
2019-02-17T05:42:15.943Z,8.70
2019-02-17T05:43:15.971Z,9.60
2019-02-17T05:44:15.930Z,10.70
2019-02-17T05:45:15.913Z,9.40
2019-02-17T05:46:15.931Z,9.10
2019-02-17T05:47:15.893Z,9.40
2019-02-17T05:48:15.917Z,9.40
2019-02-17T05:49:15.867Z,9.10
2019-02-17T05:50:15.856Z,10.50
2019-02-17T05:51:15.846Z,10.80
2019-02-17T05:52:15.838Z,8.80
2019-02-17T05:53:15.863Z,10.40
2019-02-17T05:54:15.815Z,11.70
2019-02-17T05:55:15.811Z,9.70
2019-02-17T05:56:15.806Z,10.30
2019-02-17T05:57:15.833Z,10.70
2019-02-17T05:58:15.778Z,11.20
2019-02-17T05:59:15.768Z,7.90
2019-02-17T06:00:15.756Z,9.10
2019-02-17T06:01:15.737Z,10.80
2019-02-17T06:02:15.741Z,11.30
2019-02-17T06:03:15.757Z,10.40
2019-02-17T06:04:15.710Z,9.90
2019-02-17T06:05:15.700Z,8.30
2019-02-17T06:06:15.686Z,10.10
2019-02-17T06:07:15.697Z,9.40
2019-02-17T06:08:15.666Z,8.70
2019-02-17T06:09:15.653Z,11.10
2019-02-17T06:10:15.646Z,10.40
2019-02-17T06:11:15.637Z,9.40
2019-02-17T06:12:15.706Z,11.30
2019-02-17T06:13:15.644Z,10.10
2019-02-17T06:14:15.598Z,9.60
2019-02-17T06:15:15.586Z,10.10
2019-02-17T06:16:15.581Z,10.10
2019-02-17T06:17:15.577Z,12.00
2019-02-17T06:18:15.635Z,12.00
2019-02-17T06:19:17.679Z,10.40
2019-02-17T06:20:15.536Z,10.00
2019-02-17T06:21:15.531Z,10.30
2019-02-17T06:22:15.523Z,10.10
2019-02-17T06:23:15.499Z,11.80
2019-02-17T06:24:15.502Z,11.20
2019-02-17T06:25:15.490Z,7.90
2019-02-17T06:26:15.468Z,9.90
2019-02-17T06:27:15.462Z,10.10
2019-02-17T06:28:15.446Z,9.40
2019-02-17T06:29:15.457Z,9.80
2019-02-17T06:30:15.424Z,10.40
2019-02-17T06:31:15.420Z,10.00
2019-02-17T06:32:15.405Z,9.10
2019-02-17T06:33:15.391Z,11.30
2019-02-17T06:34:15.436Z,9.60
2019-02-17T06:35:15.370Z,9.70
2019-02-17T06:36:15.362Z,11.30
2019-02-17T06:37:15.346Z,12.80
2019-02-17T06:38:15.336Z,10.10
2019-02-17T06:39:15.325Z,13.10
2019-02-17T06:40:15.364Z,10.30
2019-02-17T06:41:15.310Z,11.30
2019-02-17T06:42:15.294Z,9.60
2019-02-17T06:43:15.284Z,21.30
2019-02-17T06:44:15.299Z,10.60
2019-02-17T06:45:15.298Z,9.90
2019-02-17T06:46:15.253Z,10.60
2019-02-17T06:47:15.246Z,10.60
2019-02-17T06:48:15.230Z,9.40
2019-02-17T06:49:15.224Z,11.20
2019-02-17T06:50:15.224Z,10.30
2019-02-17T06:51:15.211Z,9.60
2019-02-17T06:52:15.193Z,10.50
2019-02-17T06:53:15.181Z,11.10
2019-02-17T06:54:15.170Z,12.10
2019-02-17T06:55:15.219Z,11.40
2019-02-17T06:56:15.167Z,9.60
2019-02-17T06:57:15.146Z,9.40
2019-02-17T06:58:15.129Z,10.80
2019-02-17T06:59:15.117Z,11.60
2019-02-17T07:00:15.099Z,9.90
2019-02-17T07:01:24.332Z,11.70
2019-02-17T07:02:16.127Z,11.70
2019-02-17T07:03:15.067Z,10.20
2019-02-17T07:04:15.070Z,11.60
2019-02-17T07:05:15.072Z,11.00
2019-02-17T07:06:15.035Z,12.20
2019-02-17T07:07:15.046Z,10.40
2019-02-17T07:08:15.050Z,12.30
2019-02-17T07:09:15.009Z,9.70
2019-02-17T07:10:15.000Z,10.80
2019-02-17T07:11:15.007Z,12.20
2019-02-17T07:12:15.002Z,9.40
2019-02-17T07:13:15.003Z,13.00
2019-02-17T07:14:14.954Z,11.20
2019-02-17T07:15:14.940Z,11.10
2019-02-17T07:16:14.926Z,11.40
2019-02-17T07:17:14.917Z,11.50
2019-02-17T07:18:14.982Z,11.00
2019-02-17T07:19:14.932Z,10.10
2019-02-17T07:20:14.889Z,10.30
2019-02-17T07:21:14.872Z,10.10
2019-02-17T07:22:14.861Z,10.20
2019-02-17T07:23:15.404Z,11.00
2019-02-17T07:24:14.878Z,11.80
2019-02-17T07:25:14.834Z,11.40
2019-02-17T07:26:17.048Z,11.90
2019-02-17T07:27:14.815Z,10.10
2019-02-17T07:28:14.801Z,10.00
2019-02-17T07:29:16.779Z,10.20
2019-02-17T07:30:14.782Z,10.70
2019-02-17T07:31:14.769Z,12.20
2019-02-17T07:32:14.758Z,11.80
2019-02-17T07:33:14.743Z,11.50
2019-02-17T07:34:14.770Z,12.10
2019-02-17T07:35:14.762Z,11.70
2019-02-17T07:36:14.720Z,10.10
2019-02-17T07:37:14.705Z,11.40
2019-02-17T07:38:14.693Z,11.00
2019-02-17T07:39:14.682Z,11.00
2019-02-17T07:40:14.674Z,10.30
2019-02-17T07:41:14.693Z,11.50
2019-02-17T07:42:14.646Z,12.10
2019-02-17T07:43:14.638Z,11.00
2019-02-17T07:44:14.631Z,10.90
2019-02-17T07:45:14.640Z,10.20
2019-02-17T07:46:14.602Z,11.80
2019-02-17T07:47:14.596Z,10.50
2019-02-17T07:48:14.584Z,13.50
2019-02-17T07:49:14.568Z,10.90
2019-02-17T07:50:14.586Z,11.80
2019-02-17T07:51:14.551Z,11.40
2019-02-17T07:52:14.543Z,10.50
2019-02-17T07:53:14.536Z,12.50
2019-02-17T07:54:14.516Z,12.30
2019-02-17T07:55:14.552Z,9.90
2019-02-17T07:56:14.491Z,10.60
2019-02-17T07:57:14.517Z,11.20
2019-02-17T07:58:14.472Z,10.00
2019-02-17T07:59:14.463Z,13.20
2019-02-17T08:00:14.449Z,10.10
2019-02-17T08:01:14.441Z,11.30
2019-02-17T08:02:14.445Z,13.70
2019-02-17T08:03:14.421Z,11.50
2019-02-17T08:04:14.402Z,11.80
2019-02-17T08:05:14.392Z,11.20
2019-02-17T08:06:14.387Z,12.30
2019-02-17T08:07:14.406Z,11.40
2019-02-17T08:08:14.373Z,13.50
2019-02-17T08:09:14.354Z,11.60
2019-02-17T08:10:14.335Z,11.40
2019-02-17T08:11:14.331Z,15.30
2019-02-17T08:12:14.326Z,11.50
2019-02-17T08:13:14.356Z,11.10
2019-02-17T08:14:14.316Z,12.30
2019-02-17T08:15:14.284Z,12.70
2019-02-17T08:16:14.312Z,10.80
2019-02-17T08:17:14.259Z,11.80
2019-02-17T08:18:14.250Z,11.80
2019-02-17T08:19:14.240Z,13.40
2019-02-17T08:20:14.241Z,12.90
2019-02-17T08:21:14.217Z,12.30
2019-02-17T08:22:14.235Z,15.00
2019-02-17T08:23:14.201Z,13.70
2019-02-17T08:24:14.222Z,13.40
2019-02-17T08:25:21.539Z,11.10
2019-02-17T08:26:15.161Z,11.80
2019-02-17T08:27:14.173Z,14.00
2019-02-17T08:28:14.157Z,13.30
2019-02-17T08:29:14.135Z,12.90
2019-02-17T08:30:14.156Z,11.70
2019-02-17T08:31:14.131Z,12.70
2019-02-17T08:32:14.101Z,13.60
2019-02-17T08:33:14.090Z,14.00
2019-02-17T08:34:14.082Z,13.90
2019-02-17T08:35:14.118Z,13.10
2019-02-17T08:36:14.056Z,11.40
2019-02-17T08:37:14.043Z,14.50
2019-02-17T08:38:14.035Z,14.90
2019-02-17T08:39:14.025Z,13.30
2019-02-17T08:40:14.010Z,12.60
2019-02-17T08:41:14.029Z,12.90
2019-02-17T08:42:13.987Z,13.40
2019-02-17T08:43:14.027Z,13.10
2019-02-17T08:44:13.967Z,15.80
2019-02-17T08:45:13.963Z,13.90
2019-02-17T08:46:13.943Z,14.40
2019-02-17T08:47:13.941Z,12.90
2019-02-17T08:48:13.924Z,14.50
2019-02-17T08:49:13.957Z,13.20
2019-02-17T08:50:13.905Z,12.00
2019-02-17T08:51:13.897Z,14.30
2019-02-17T08:52:13.879Z,14.90
2019-02-17T08:53:13.875Z,16.40
2019-02-17T08:54:13.856Z,15.10
2019-02-17T08:55:13.914Z,15.80
2019-02-17T08:56:13.839Z,14.80
2019-02-17T08:57:13.823Z,13.90
2019-02-17T08:58:13.820Z,12.00
2019-02-17T08:59:13.802Z,12.00
2019-02-17T09:00:13.791Z,13.40
2019-02-17T09:01:13.795Z,13.80
2019-02-17T09:02:13.784Z,16.00
2019-02-17T09:03:13.764Z,15.60
2019-02-17T09:04:13.747Z,17.60
2019-02-17T09:05:13.752Z,15.40
2019-02-17T09:06:13.745Z,14.80
2019-02-17T09:07:13.720Z,13.20
2019-02-17T09:08:13.704Z,15.40
2019-02-17T09:09:13.695Z,13.00
2019-02-17T09:10:13.682Z,13.80
2019-02-17T09:11:13.705Z,14.60
2019-02-17T09:12:13.662Z,11.80
2019-02-17T09:13:13.649Z,12.60
2019-02-17T09:14:13.650Z,13.20
2019-02-17T09:15:13.631Z,13.20
2019-02-17T09:16:13.618Z,13.40
2019-02-17T09:17:13.627Z,15.00
2019-02-17T09:18:13.600Z,14.30
2019-02-17T09:19:13.586Z,13.80
2019-02-17T09:20:13.572Z,14.00
2019-02-17T09:21:13.561Z,14.60
2019-02-17T09:22:13.559Z,14.70
2019-02-17T09:23:13.540Z,14.40
2019-02-17T09:24:13.529Z,16.30
2019-02-17T09:25:13.516Z,14.00
2019-02-17T09:26:13.510Z,16.30
2019-02-17T09:27:13.509Z,15.30
2019-02-17T09:28:13.482Z,13.70
2019-02-17T09:29:13.485Z,13.90
2019-02-17T09:30:13.465Z,14.90
2019-02-17T09:31:13.451Z,12.90
2019-02-17T09:32:16.323Z,13.70
2019-02-17T09:33:13.431Z,16.30
2019-02-17T09:34:13.440Z,13.70
2019-02-17T09:35:13.411Z,16.70
2019-02-17T09:36:13.400Z,14.90
2019-02-17T09:37:13.385Z,14.30
2019-02-17T09:38:13.390Z,15.10
2019-02-17T09:39:13.369Z,15.70
2019-02-17T09:40:13.351Z,15.80
2019-02-17T09:41:13.345Z,15.00
2019-02-17T09:42:13.327Z,16.50
2019-02-17T09:43:13.332Z,15.70
2019-02-17T09:44:13.312Z,14.80
2019-02-17T09:45:13.341Z,14.30
2019-02-17T09:46:13.290Z,15.70
2019-02-17T09:47:13.274Z,29.90
2019-02-17T09:48:13.264Z,15.40
2019-02-17T09:49:13.253Z,15.10
2019-02-17T09:50:13.241Z,15.50
2019-02-17T09:51:13.248Z,14.20
2019-02-17T09:52:13.224Z,15.50
2019-02-17T09:53:13.218Z,20.00
2019-02-17T09:54:13.205Z,14.80
2019-02-17T09:55:14.180Z,16.50
2019-02-17T09:56:15.683Z,14.90
2019-02-17T09:57:13.169Z,16.80
2019-02-17T09:58:13.254Z,15.20
2019-02-17T09:59:19.685Z,15.10
2019-02-17T10:00:13.136Z,15.80
2019-02-17T10:01:13.127Z,15.20
2019-02-17T10:02:13.117Z,15.60
2019-02-17T10:03:14.686Z,16.40
2019-02-17T10:04:13.088Z,17.10
2019-02-17T10:05:13.082Z,16.20
2019-02-17T10:06:13.066Z,16.90
2019-02-17T10:07:13.056Z,18.30
2019-02-17T10:08:13.055Z,14.40
2019-02-17T10:09:13.048Z,15.60
2019-02-17T10:10:13.027Z,15.30
2019-02-17T10:11:13.019Z,14.60
2019-02-17T10:12:13.006Z,18.40
2019-02-17T10:13:12.988Z,17.40
2019-02-17T10:14:13.118Z,15.20
2019-02-17T10:15:12.968Z,17.60
2019-02-17T10:16:12.960Z,16.80
2019-02-17T10:17:12.962Z,18.20
2019-02-17T10:18:12.936Z,19.60
2019-02-17T10:19:12.929Z,16.00
2019-02-17T10:20:12.956Z,16.60
2019-02-17T10:21:12.908Z,17.70
2019-02-17T10:22:12.898Z,16.90
2019-02-17T10:23:12.882Z,17.60
2019-02-17T10:24:12.874Z,18.80
2019-02-17T10:25:12.857Z,16.60
2019-02-17T10:26:12.863Z,17.00
2019-02-17T10:27:12.837Z,17.30
2019-02-17T10:28:12.830Z,18.00
2019-02-17T10:29:12.914Z,21.10
2019-02-17T10:30:12.808Z,16.10
2019-02-17T10:31:12.796Z,20.20
2019-02-17T10:32:12.781Z,16.30
2019-02-17T10:33:12.776Z,16.40
2019-02-17T10:34:12.761Z,18.90
2019-02-17T10:35:12.783Z,19.50
2019-02-17T10:36:12.741Z,17.30
2019-02-17T10:37:12.728Z,16.20
2019-02-17T10:38:12.716Z,17.60
2019-02-17T10:39:12.722Z,16.00
2019-02-17T10:40:12.697Z,19.40
2019-02-17T10:41:12.692Z,16.90
2019-02-17T10:42:12.677Z,15.30
2019-02-17T10:43:12.668Z,17.40
2019-02-17T10:44:12.663Z,17.00
2019-02-17T10:45:12.646Z,16.80
2019-02-17T10:46:12.636Z,17.70
2019-02-17T10:47:12.616Z,17.00
2019-02-17T10:48:12.604Z,17.10
2019-02-17T10:49:12.601Z,15.40
2019-02-17T10:50:12.581Z,19.70
2019-02-17T10:51:12.613Z,15.20
2019-02-17T10:52:12.571Z,17.30
2019-02-17T10:53:12.547Z,16.60
2019-02-17T10:54:12.538Z,14.70
2019-02-17T10:55:12.532Z,16.40
2019-02-17T10:56:12.530Z,17.40
2019-02-17T10:57:12.546Z,17.70
2019-02-17T10:58:12.537Z,16.20
2019-02-17T10:59:12.489Z,17.80
2019-02-17T11:00:12.482Z,19.80
2019-02-17T11:01:12.461Z,18.40
2019-02-17T11:02:12.450Z,27.20
2019-02-17T11:03:12.579Z,20.90
2019-02-17T11:04:12.438Z,18.40
2019-02-17T11:05:12.422Z,18.20
2019-02-17T11:06:12.410Z,17.60
2019-02-17T11:07:12.400Z,17.90
2019-02-17T11:08:12.389Z,16.60
2019-02-17T11:09:12.383Z,18.20
2019-02-17T11:10:12.365Z,16.30
2019-02-17T11:11:12.351Z,16.30
2019-02-17T11:12:12.346Z,17.60
2019-02-17T11:13:12.383Z,20.50
2019-02-17T11:14:12.331Z,17.60
2019-02-17T11:15:12.313Z,20.90
2019-02-17T11:16:12.307Z,17.30
2019-02-17T11:17:12.287Z,18.30
2019-02-17T11:18:12.293Z,16.60
2019-02-17T11:19:12.264Z,19.60
2019-02-17T11:20:12.258Z,20.60
2019-02-17T11:21:12.285Z,19.70
2019-02-17T11:22:12.236Z,20.60
2019-02-17T11:23:12.227Z,17.70
2019-02-17T11:24:12.211Z,18.30
2019-02-17T11:25:12.204Z,19.80
2019-02-17T11:26:12.189Z,18.40
2019-02-17T11:27:12.191Z,17.50
2019-02-17T11:28:12.182Z,16.10
2019-02-17T11:29:12.156Z,17.30
2019-02-17T11:30:12.147Z,16.50
2019-02-17T11:31:12.140Z,17.80
2019-02-17T11:32:12.135Z,20.50
2019-02-17T11:33:12.112Z,17.80
2019-02-17T11:34:12.115Z,19.40
2019-02-17T11:35:12.091Z,17.30
2019-02-17T11:36:12.078Z,18.10
2019-02-17T11:37:12.069Z,17.00
2019-02-17T11:38:12.066Z,18.00
2019-02-17T11:39:12.053Z,20.60
2019-02-17T11:40:12.044Z,18.90
2019-02-17T11:41:12.728Z,17.40
2019-02-17T11:42:12.022Z,17.80
2019-02-17T11:43:12.030Z,17.70
2019-02-17T11:44:11.997Z,19.90
2019-02-17T11:45:11.989Z,19.40
2019-02-17T11:46:11.974Z,18.70
2019-02-17T11:47:11.962Z,17.80
2019-02-17T11:48:11.953Z,21.30
2019-02-17T11:49:11.946Z,19.70
2019-02-17T11:50:11.936Z,17.00
2019-02-17T11:51:11.918Z,18.90
2019-02-17T11:52:11.909Z,19.60
2019-02-17T11:53:11.898Z,17.70
2019-02-17T11:54:11.886Z,17.20
2019-02-17T11:55:11.883Z,20.90
2019-02-17T11:56:11.866Z,18.30
2019-02-17T11:57:11.850Z,19.00
2019-02-17T11:58:11.836Z,20.10
2019-02-17T11:59:11.832Z,19.80
2019-02-17T12:00:11.854Z,17.70
2019-02-17T12:01:11.810Z,20.80
2019-02-17T12:02:11.812Z,19.50
2019-02-17T12:03:11.789Z,19.60
2019-02-17T12:04:11.790Z,18.70
2019-02-17T12:05:11.763Z,18.00
2019-02-17T12:06:11.761Z,19.00
2019-02-17T12:07:11.749Z,19.00
2019-02-17T12:08:11.736Z,19.40
2019-02-17T12:09:11.725Z,20.30
2019-02-17T12:10:11.717Z,20.50
2019-02-17T12:11:11.734Z,19.00
2019-02-17T12:12:13.657Z,20.00
2019-02-17T12:13:11.682Z,20.60
2019-02-17T12:14:11.667Z,20.80
2019-02-17T12:15:11.666Z,20.40
2019-02-17T12:16:11.649Z,27.40
2019-02-17T12:17:11.645Z,21.80
2019-02-17T12:18:11.622Z,20.00
2019-02-17T12:19:11.617Z,19.60
2019-02-17T12:20:11.616Z,21.20
2019-02-17T12:21:11.596Z,22.00
2019-02-17T12:22:11.589Z,18.60
2019-02-17T12:23:11.574Z,18.60
2019-02-17T12:24:11.560Z,20.40
2019-02-17T12:25:11.554Z,19.60
2019-02-17T12:26:11.553Z,20.70
2019-02-17T12:27:11.531Z,20.90
2019-02-17T12:28:11.525Z,19.40
2019-02-17T12:29:11.509Z,19.80
2019-02-17T12:30:11.500Z,20.50
2019-02-17T12:31:11.483Z,22.70
2019-02-17T12:32:11.479Z,19.50
2019-02-17T12:33:19.335Z,19.90
2019-02-17T12:34:12.453Z,21.50
2019-02-17T12:35:11.440Z,23.90
2019-02-17T12:36:11.428Z,21.30
2019-02-17T12:37:11.433Z,19.90
2019-02-17T12:38:11.408Z,18.60
2019-02-17T12:39:11.397Z,18.70
2019-02-17T12:40:11.389Z,18.80
2019-02-17T12:41:11.385Z,19.20
2019-02-17T12:42:11.374Z,18.50
2019-02-17T12:43:11.357Z,18.50
2019-02-17T12:44:11.355Z,21.10
2019-02-17T12:45:11.332Z,20.50
2019-02-17T12:46:11.321Z,21.50
2019-02-17T12:47:11.340Z,22.30
2019-02-17T12:48:11.346Z,20.50
2019-02-17T12:49:11.294Z,21.30
2019-02-17T12:50:11.282Z,20.60
2019-02-17T12:51:11.269Z,18.60
2019-02-17T12:52:11.262Z,19.80
2019-02-17T12:53:11.263Z,20.20
2019-02-17T12:54:11.231Z,20.80
2019-02-17T12:55:11.231Z,19.90
2019-02-17T12:56:11.213Z,19.30
2019-02-17T12:57:11.203Z,20.60
2019-02-17T12:58:11.199Z,19.60